Time;durP1;ratioP1;P1;durP2;ratioP2;P2;SDS_P1;SDS_P2;PMS_P1;PMS_P2;Temp;Humidity;BMP_temperature;BMP_pressure;BME280_temperature;BME280_humidity;BME280_pressure;Samples;Min_cycle;Max_cycle;Signal;HPM_P1;HPM_P2
2023/10/29 00:00:47;;;;;;;5.55;1.58;;;12.90;99.90;;;;;;5057572;28;20469;-58
2023/10/29 00:03:12;;;;;;;3.22;1.60;;;13.00;99.90;;;;;;5062406;28;20081;-59
2023/10/29 00:05:38;;;;;;;3.42;1.70;;;13.10;99.90;;;;;;5059645;28;20482;-60
2023/10/29 00:08:04;;;;;;;4.53;1.45;;;13.10;99.90;;;;;;5064590;28;20034;-61
2023/10/29 00:10:29;;;;;;;3.88;1.15;;;13.00;99.90;;;;;;5060539;28;20135;-63
2023/10/29 00:12:55;;;;;;;9.82;1.75;;;13.10;99.90;;;;;;5058541;28;20032;-54
2023/10/29 00:15:21;;;;;;;3.08;1.48;;;13.10;99.90;;;;;;5056698;28;20024;-58
2023/10/29 00:17:47;;;;;;;6.95;1.30;;;13.10;99.90;;;;;;5062730;28;20036;-61
2023/10/29 00:20:13;;;;;;;4.13;1.17;;;13.20;99.90;;;;;;5061755;28;20082;-59
2023/10/29 00:22:38;;;;;;;4.53;1.00;;;13.30;99.90;;;;;;5067745;28;20406;-60
2023/10/29 00:25:04;;;;;;;8.43;1.23;;;13.30;99.90;;;;;;5056089;28;20047;-56
2023/10/29 00:27:30;;;;;;;4.05;1.38;;;13.30;99.90;;;;;;5057203;28;20021;-61
2023/10/29 00:29:55;;;;;;;2.60;1.02;;;13.40;99.90;;;;;;5064803;28;20055;-59
2023/10/29 00:32:21;;;;;;;4.15;1.02;;;13.40;99.90;;;;;;5062485;28;20031;-60
2023/10/29 00:34:47;;;;;;;4.53;1.33;;;13.50;99.90;;;;;;5063575;28;20033;-58
2023/10/29 00:37:14;;;;;;;5.85;1.27;;;13.50;99.90;;;;;;5070765;28;20552;-61
2023/10/29 00:39:40;;;;;;;4.32;1.10;;;13.50;99.90;;;;;;5060984;28;20025;-60
2023/10/29 00:42:06;;;;;;;12.48;1.20;;;13.50;99.90;;;;;;5062650;28;20068;-61
2023/10/29 00:44:32;;;;;;;5.68;1.25;;;13.50;99.90;;;;;;5059468;28;20454;-61
2023/10/29 00:46:58;;;;;;;2.92;1.20;;;13.50;99.90;;;;;;5061477;28;20066;-59
2023/10/29 00:49:24;;;;;;;7.95;1.05;;;13.60;99.90;;;;;;5063473;28;20688;-57
2023/10/29 00:51:50;;;;;;;6.88;1.58;;;13.60;99.90;;;;;;5057746;28;20040;-58
2023/10/29 00:54:16;;;;;;;6.22;1.13;;;13.60;99.90;;;;;;5064668;28;20580;-61
2023/10/29 00:56:42;;;;;;;3.35;1.15;;;13.60;99.90;;;;;;5063123;28;20056;-59
2023/10/29 00:59:07;;;;;;;5.07;1.27;;;13.70;99.90;;;;;;5062666;28;20060;-61
2023/10/29 01:01:33;;;;;;;8.48;2.40;;;13.70;99.90;;;;;;5058659;28;20487;-61
2023/10/29 01:03:59;;;;;;;2.40;0.90;;;13.70;99.90;;;;;;5067638;28;20512;-59
2023/10/29 01:06:25;;;;;;;2.85;1.00;;;13.80;99.90;;;;;;5068262;28;20024;-62
2023/10/29 01:08:52;;;;;;;4.45;1.17;;;13.80;99.90;;;;;;5066836;28;20155;-61
2023/10/29 01:11:17;;;;;;;7.20;1.30;;;13.80;99.90;;;;;;5067528;28;20428;-61
2023/10/29 01:13:43;;;;;;;2.33;1.08;;;13.80;99.90;;;;;;5065921;28;20025;-58
2023/10/29 01:16:08;;;;;;;5.75;1.17;;;13.80;99.90;;;;;;5065034;28;20021;-60
2023/10/29 01:18:34;;;;;;;2.42;1.02;;;13.90;99.90;;;;;;5060133;28;20056;-61
2023/10/29 01:21:00;;;;;;;3.63;1.05;;;14.00;99.90;;;;;;5064228;28;20059;-61
2023/10/29 01:23:28;;;;;;;2.67;1.13;;;14.10;99.90;;;;;;5063182;28;20033;-60
2023/10/29 01:25:55;;;;;;;8.88;1.15;;;14.00;99.90;;;;;;5066463;28;20024;-62
2023/10/29 01:28:21;;;;;;;3.58;0.95;;;14.00;99.90;;;;;;5066342;28;20095;-59
2023/10/29 01:30:46;;;;;;;1.23;0.85;;;14.00;99.90;;;;;;5063155;28;20033;-61
2023/10/29 01:33:12;;;;;;;3.22;0.90;;;14.00;99.90;;;;;;5064508;28;20024;-60
2023/10/29 01:35:37;;;;;;;6.88;2.03;;;14.10;99.90;;;;;;5063349;28;20040;-56
2023/10/29 01:38:03;;;;;;;4.75;1.13;;;14.20;99.90;;;;;;5069058;28;20479;-59
2023/10/29 01:40:28;;;;;;;6.78;1.10;;;14.30;99.90;;;;;;5063546;28;20031;-63
2023/10/29 01:42:54;;;;;;;4.10;1.10;;;14.30;99.90;;;;;;5059252;28;20391;-59
2023/10/29 01:45:20;;;;;;;10.95;1.90;;;14.30;99.90;;;;;;5063594;28;20035;-60
2023/10/29 01:47:45;;;;;;;4.68;1.08;;;14.30;99.90;;;;;;5062456;28;20036;-61
2023/10/29 01:50:11;;;;;;;6.10;1.20;;;14.30;99.90;;;;;;5059512;28;20041;-62
2023/10/29 01:52:38;;;;;;;7.50;1.45;;;14.20;99.90;;;;;;5063115;28;20033;-57
2023/10/29 01:55:07;;;;;;;5.35;0.90;;;14.20;99.90;;;;;;5060267;28;20017;-59
2023/10/29 01:57:34;;;;;;;2.83;1.50;;;14.30;99.90;;;;;;5061083;28;20139;-59
2023/10/29 02:00:00;;;;;;;2.72;1.10;;;14.30;99.90;;;;;;5056013;28;20040;-59
2023/10/29 02:02:25;;;;;;;3.28;1.08;;;14.20;99.90;;;;;;5059009;28;20029;-61
2023/10/29 02:04:51;;;;;;;5.70;1.02;;;14.20;99.90;;;;;;5063037;28;20024;-58
2023/10/29 02:07:16;;;;;;;2.90;1.10;;;14.30;99.90;;;;;;5061361;28;20076;-59
2023/10/29 02:09:42;;;;;;;3.13;0.90;;;14.30;99.90;;;;;;5063525;28;20031;-59
2023/10/29 02:12:07;;;;;;;3.78;1.10;;;14.30;99.90;;;;;;5060876;28;20100;-58
2023/10/29 02:14:36;;;;;;;2.78;0.90;;;14.20;99.90;;;;;;5060598;28;20029;-62
2023/10/29 02:17:01;;;;;;;3.55;1.35;;;14.20;99.90;;;;;;5060438;28;20055;-60
2023/10/29 02:19:27;;;;;;;5.93;0.98;;;14.00;99.90;;;;;;5062439;28;20503;-61
2023/10/29 02:21:55;;;;;;;8.32;1.25;;;14.00;99.90;;;;;;5059223;28;20037;-53
2023/10/29 02:24:21;;;;;;;1.80;1.10;;;13.90;99.90;;;;;;5066354;28;20074;-62
2023/10/29 02:26:46;;;;;;;4.85;1.20;;;13.90;99.90;;;;;;5063425;28;20028;-59
2023/10/29 02:29:12;;;;;;;4.43;0.90;;;13.90;99.90;;;;;;5062505;28;20456;-57
2023/10/29 02:31:38;;;;;;;5.60;1.17;;;13.90;99.90;;;;;;5061503;28;20063;-60
2023/10/29 02:34:03;;;;;;;2.25;1.02;;;13.90;99.90;;;;;;5060973;28;20117;-56
2023/10/29 02:36:29;;;;;;;2.53;0.80;;;13.90;99.90;;;;;;5062708;28;20025;-57
2023/10/29 02:38:54;;;;;;;4.90;1.10;;;13.90;99.90;;;;;;5063287;28;20399;-57
2023/10/29 02:41:20;;;;;;;4.93;1.20;;;13.90;99.90;;;;;;5063922;28;20025;-59
2023/10/29 02:43:46;;;;;;;5.97;0.80;;;13.90;99.90;;;;;;5064139;28;20035;-61
2023/10/29 02:46:11;;;;;;;5.13;0.93;;;13.80;99.90;;;;;;5060660;28;20407;-60
2023/10/29 02:48:37;;;;;;;2.65;0.75;;;13.80;99.90;;;;;;5064106;28;20047;-55
2023/10/29 02:51:03;;;;;;;2.05;0.95;;;13.80;99.90;;;;;;5060325;28;20040;-57
2023/10/29 02:53:28;;;;;;;4.95;1.10;;;13.90;99.90;;;;;;5060717;28;20035;-59
2023/10/29 02:55:58;;;;;;;2.63;0.90;;;13.90;99.90;;;;;;5071673;28;20021;-56
2023/10/29 02:58:24;;;;;;;2.38;0.90;;;13.90;99.90;;;;;;5066287;28;20081;-57
2023/10/29 03:00:49;;;;;;;6.00;1.08;;;13.90;99.90;;;;;;5059817;28;20020;-56
2023/10/29 03:03:15;;;;;;;3.08;1.25;;;14.00;99.90;;;;;;5064870;28;20074;-60
2023/10/29 03:05:40;;;;;;;5.22;1.15;;;14.00;99.90;;;;;;5058310;28;20452;-55
2023/10/29 03:08:06;;;;;;;2.47;0.75;;;13.90;99.90;;;;;;5063135;28;20090;-57
2023/10/29 03:10:32;;;;;;;4.65;1.08;;;13.90;99.90;;;;;;5059839;28;20035;-58
2023/10/29 03:12:58;;;;;;;2.90;0.70;;;13.90;99.90;;;;;;5059371;28;20036;-58
2023/10/29 03:15:23;;;;;;;0.82;0.68;;;14.00;99.90;;;;;;5055102;28;20076;-57
2023/10/29 03:17:49;;;;;;;3.63;0.88;;;14.00;99.90;;;;;;5062862;28;20066;-55
2023/10/29 03:20:16;;;;;;;0.90;0.80;;;14.00;99.90;;;;;;5062087;28;20032;-59
2023/10/29 03:22:42;;;;;;;1.63;0.57;;;14.00;99.90;;;;;;5060114;28;20430;-58
2023/10/29 03:25:08;;;;;;;2.17;0.80;;;14.00;99.90;;;;;;5058191;28;20040;-57
2023/10/29 03:27:34;;;;;;;1.02;0.80;;;14.00;99.90;;;;;;5056490;28;20036;-56
2023/10/29 03:30:00;;;;;;;2.67;0.80;;;14.00;99.90;;;;;;5053857;28;20078;-53
2023/10/29 03:32:26;;;;;;;2.63;0.63;;;14.00;99.90;;;;;;5064984;28;20080;-58
2023/10/29 03:34:51;;;;;;;2.15;0.60;;;14.00;99.90;;;;;;5066521;28;20031;-58
2023/10/29 03:37:18;;;;;;;0.98;0.50;;;14.00;99.90;;;;;;5057131;28;20027;-57
2023/10/29 03:39:43;;;;;;;2.45;0.60;;;14.10;99.90;;;;;;5058169;28;20048;-55
2023/10/29 03:42:09;;;;;;;2.53;0.70;;;14.10;99.90;;;;;;5059798;28;20060;-55
2023/10/29 03:44:35;;;;;;;2.33;0.73;;;14.10;99.90;;;;;;5062216;28;20058;-57
2023/10/29 03:47:00;;;;;;;0.98;0.63;;;14.10;99.90;;;;;;5060366;28;20021;-57
2023/10/29 03:49:26;;;;;;;1.55;0.88;;;14.10;99.90;;;;;;5062384;28;20028;-58
2023/10/29 03:51:52;;;;;;;0.85;0.55;;;14.00;99.90;;;;;;5057634;28;20029;-57
2023/10/29 03:54:17;;;;;;;2.80;0.70;;;14.00;99.90;;;;;;5064949;28;20053;-58
2023/10/29 03:56:43;;;;;;;1.48;0.90;;;14.00;99.90;;;;;;5060185;28;20075;-54
2023/10/29 03:59:08;;;;;;;2.03;0.60;;;14.00;99.90;;;;;;5056021;28;20052;-58
2023/10/29 04:01:34;;;;;;;5.05;0.80;;;14.00;99.90;;;;;;5052861;28;20065;-58
2023/10/29 04:03:59;;;;;;;3.78;0.80;;;14.00;99.90;;;;;;5061578;28;20067;-58
2023/10/29 04:06:25;;;;;;;6.57;0.93;;;14.10;99.90;;;;;;5062291;28;20067;-55
2023/10/29 04:08:51;;;;;;;1.30;0.60;;;14.30;99.90;;;;;;5062520;28;20450;-58
2023/10/29 04:11:16;;;;;;;1.88;0.70;;;14.20;99.90;;;;;;5060169;28;20059;-53
2023/10/29 04:13:42;;;;;;;2.33;0.70;;;14.20;99.90;;;;;;5066849;28;20479;-58
2023/10/29 04:16:08;;;;;;;1.77;0.90;;;14.20;99.90;;;;;;5058725;28;20100;-57
2023/10/29 04:18:34;;;;;;;1.83;0.63;;;14.20;99.90;;;;;;5064509;28;20108;-53
2023/10/29 04:21:03;;;;;;;1.55;0.73;;;14.30;99.90;;;;;;5066192;28;20535;-59
2023/10/29 04:23:29;;;;;;;0.95;0.77;;;14.30;99.90;;;;;;5054363;28;20040;-58
2023/10/29 04:25:54;;;;;;;0.70;0.63;;;14.30;99.90;;;;;;5061810;28;20051;-55
2023/10/29 04:28:20;;;;;;;1.55;0.90;;;14.30;99.90;;;;;;5065530;28;20032;-54
2023/10/29 04:30:46;;;;;;;1.70;0.80;;;14.30;99.90;;;;;;5064370;28;20077;-53
2023/10/29 04:33:12;;;;;;;6.47;0.88;;;14.30;99.90;;;;;;5062400;28;20025;-55
2023/10/29 04:35:37;;;;;;;3.13;0.60;;;14.40;99.90;;;;;;5061609;28;20039;-53
2023/10/29 04:38:03;;;;;;;4.93;1.08;;;14.40;99.90;;;;;;5065358;28;20395;-59
2023/10/29 04:40:29;;;;;;;6.57;0.90;;;14.40;99.90;;;;;;5062902;28;20100;-57
2023/10/29 04:42:54;;;;;;;3.80;1.00;;;14.60;99.90;;;;;;5064705;28;20071;-57
2023/10/29 04:45:20;;;;;;;2.05;0.80;;;14.60;99.90;;;;;;5059027;28;20021;-56
2023/10/29 04:47:45;;;;;;;2.45;1.00;;;14.60;99.90;;;;;;5065676;28;20498;-56
2023/10/29 04:50:11;;;;;;;9.18;0.60;;;14.70;99.90;;;;;;5070638;28;20112;-58
2023/10/29 04:52:36;;;;;;;4.03;1.20;;;14.60;99.90;;;;;;5065301;28;20116;-59
2023/10/29 04:55:02;;;;;;;3.95;1.00;;;14.60;99.90;;;;;;5062196;28;20491;-57
2023/10/29 04:57:28;;;;;;;2.53;0.80;;;14.70;99.90;;;;;;5059293;28;20469;-57
2023/10/29 04:59:54;;;;;;;3.90;0.70;;;14.70;99.90;;;;;;5064533;28;20088;-56
2023/10/29 05:02:19;;;;;;;2.88;0.80;;;14.70;99.90;;;;;;5062970;28;20446;-58
2023/10/29 05:04:45;;;;;;;4.78;1.23;;;14.80;99.90;;;;;;5065873;28;20640;-52
2023/10/29 05:07:10;;;;;;;2.50;0.60;;;14.80;99.90;;;;;;5060147;28;20465;-55
2023/10/29 05:09:36;;;;;;;0.98;0.60;;;14.80;99.90;;;;;;5064950;28;20103;-61
2023/10/29 05:12:02;;;;;;;2.22;0.75;;;14.90;99.90;;;;;;5058530;28;20068;-58
2023/10/29 05:14:28;;;;;;;5.80;0.85;;;14.90;99.90;;;;;;5057790;28;20063;-61
2023/10/29 05:16:54;;;;;;;2.75;0.60;;;15.00;99.90;;;;;;5062095;28;20112;-59
2023/10/29 05:19:20;;;;;;;5.05;0.60;;;15.00;99.90;;;;;;5062870;28;20112;-58
2023/10/29 05:21:45;;;;;;;8.98;1.48;;;15.10;99.90;;;;;;5065076;28;20107;-58
2023/10/29 05:24:12;;;;;;;2.53;0.55;;;15.10;99.90;;;;;;5058568;28;20056;-55
2023/10/29 05:26:37;;;;;;;3.58;1.13;;;15.10;99.90;;;;;;5059931;28;20456;-57
2023/10/29 05:29:04;;;;;;;3.45;0.55;;;15.00;99.90;;;;;;5065957;28;20093;-58
2023/10/29 05:31:30;;;;;;;5.78;1.45;;;15.10;99.90;;;;;;5056585;28;20108;-55
2023/10/29 05:33:56;;;;;;;3.33;0.65;;;15.10;99.90;;;;;;5069379;28;20060;-56
2023/10/29 05:36:21;;;;;;;4.38;0.65;;;15.10;99.90;;;;;;5062782;28;20052;-59
2023/10/29 05:38:47;;;;;;;3.35;0.82;;;15.10;99.90;;;;;;5069440;28;20490;-57
2023/10/29 05:41:13;;;;;;;4.03;0.93;;;15.00;99.90;;;;;;5060894;28;20116;-59
2023/10/29 05:43:39;;;;;;;0.88;0.40;;;15.00;99.90;;;;;;5064000;28;20056;-56
2023/10/29 05:46:04;;;;;;;2.90;0.68;;;15.10;99.90;;;;;;5060319;28;20055;-53
2023/10/29 05:48:30;;;;;;;2.67;0.63;;;15.00;99.90;;;;;;5063752;28;20032;-57
2023/10/29 05:50:55;;;;;;;2.60;0.60;;;15.00;99.90;;;;;;5058376;28;20025;-59
2023/10/29 05:53:21;;;;;;;3.53;0.60;;;15.10;99.90;;;;;;5066405;28;20085;-58
2023/10/29 05:55:46;;;;;;;4.05;0.60;;;15.10;99.90;;;;;;5061911;28;20041;-61
2023/10/29 05:58:12;;;;;;;5.28;0.68;;;15.10;99.90;;;;;;5064282;28;20039;-59
2023/10/29 06:00:37;;;;;;;1.60;0.50;;;15.10;99.90;;;;;;5058050;28;20081;-54
2023/10/29 06:03:03;;;;;;;1.73;0.57;;;15.10;99.90;;;;;;5059767;28;20036;-58
2023/10/29 06:05:29;;;;;;;2.50;0.70;;;15.10;99.90;;;;;;5058361;28;20024;-56
2023/10/29 06:07:54;;;;;;;2.45;0.55;;;15.10;99.90;;;;;;5063017;28;20083;-58
2023/10/29 06:10:20;;;;;;;1.50;0.75;;;15.10;99.90;;;;;;5060238;28;20114;-56
2023/10/29 06:12:45;;;;;;;2.78;0.80;;;15.20;99.90;;;;;;5063430;28;20107;-57
2023/10/29 06:15:11;;;;;;;8.45;0.80;;;15.10;99.90;;;;;;5062979;28;20120;-58
2023/10/29 06:17:38;;;;;;;5.30;0.90;;;15.10;99.90;;;;;;5059991;28;20502;-58
2023/10/29 06:20:05;;;;;;;2.92;0.60;;;15.10;99.90;;;;;;5062318;28;20473;-60
2023/10/29 06:22:32;;;;;;;12.57;0.80;;;15.00;99.90;;;;;;5065012;28;20107;-59
2023/10/29 06:24:58;;;;;;;2.40;0.90;;;14.90;99.90;;;;;;5063880;28;20020;-56
2023/10/29 06:27:23;;;;;;;6.28;0.68;;;15.10;99.90;;;;;;5063357;28;20027;-51
2023/10/29 06:29:49;;;;;;;3.25;0.60;;;15.00;99.90;;;;;;5054676;28;20025;-52
2023/10/29 06:32:14;;;;;;;4.10;0.75;;;15.00;99.90;;;;;;5063644;28;20017;-60
2023/10/29 06:34:40;;;;;;;4.05;0.77;;;15.00;99.90;;;;;;5056194;28;20036;-55
2023/10/29 06:37:05;;;;;;;3.63;0.70;;;14.90;99.90;;;;;;5060016;28;20084;-53
2023/10/29 06:39:31;;;;;;;2.83;0.77;;;14.90;99.90;;;;;;5058549;28;20125;-60
2023/10/29 06:41:57;;;;;;;3.05;0.68;;;14.80;99.90;;;;;;5055870;28;20028;-60
2023/10/29 06:44:22;;;;;;;2.53;0.80;;;14.80;99.90;;;;;;5060857;28;20041;-55
2023/10/29 06:46:48;;;;;;;5.15;1.00;;;14.70;99.90;;;;;;5058032;28;20052;-56
2023/10/29 06:49:14;;;;;;;5.13;0.68;;;14.60;99.90;;;;;;5061440;28;20034;-55
2023/10/29 06:51:39;;;;;;;6.15;0.68;;;14.60;99.90;;;;;;5064130;28;20029;-58
2023/10/29 06:54:05;;;;;;;3.78;0.70;;;14.70;99.90;;;;;;5065250;28;20039;-56
2023/10/29 06:56:31;;;;;;;2.85;0.80;;;14.70;99.90;;;;;;5065510;28;20024;-61
2023/10/29 06:58:57;;;;;;;2.65;0.65;;;14.70;99.90;;;;;;5067447;28;20025;-58
2023/10/29 07:01:22;;;;;;;1.65;0.70;;;14.70;99.90;;;;;;5056141;28;20036;-59
2023/10/29 07:03:48;;;;;;;3.72;0.70;;;14.70;99.90;;;;;;5056494;28;20032;-60
2023/10/29 07:06:16;;;;;;;4.63;1.60;;;14.60;99.90;;;;;;5056665;28;20486;-55
2023/10/29 07:08:41;;;;;;;2.83;0.70;;;14.60;99.90;;;;;;5066357;28;20032;-58
2023/10/29 07:11:07;;;;;;;1.77;0.45;;;14.50;99.90;;;;;;5063170;28;20024;-55
2023/10/29 07:13:34;;;;;;;1.70;0.80;;;14.50;99.90;;;;;;5064779;28;20024;-57
2023/10/29 07:16:00;;;;;;;3.72;0.70;;;14.60;99.90;;;;;;5057797;28;20029;-56
2023/10/29 07:18:26;;;;;;;5.03;0.50;;;14.60;99.90;;;;;;5061556;28;20432;-52
2023/10/29 07:20:52;;;;;;;5.03;0.63;;;14.60;99.90;;;;;;5059713;28;20455;-56
2023/10/29 07:23:19;;;;;;;3.03;0.60;;;14.50;99.90;;;;;;5065197;28;20514;-56
2023/10/29 07:25:45;;;;;;;1.98;0.40;;;14.50;99.90;;;;;;5058520;28;20094;-59
2023/10/29 07:28:10;;;;;;;5.43;0.80;;;14.60;99.90;;;;;;5067880;28;20483;-55
2023/10/29 07:30:36;;;;;;;0.90;0.38;;;14.60;99.90;;;;;;5054749;28;20032;-57
2023/10/29 07:33:01;;;;;;;4.85;1.17;;;14.50;99.90;;;;;;5058033;28;20395;-59
2023/10/29 07:35:27;;;;;;;3.08;0.60;;;14.50;99.90;;;;;;5056206;28;20103;-58
2023/10/29 07:37:52;;;;;;;0.80;0.40;;;14.50;99.90;;;;;;5059884;28;20056;-53
2023/10/29 07:40:18;;;;;;;5.78;0.60;;;14.50;99.90;;;;;;5054451;28;20039;-58
2023/10/29 07:42:43;;;;;;;5.28;0.63;;;14.50;99.90;;;;;;5056749;28;20036;-57
2023/10/29 07:45:09;;;;;;;1.48;0.60;;;14.50;99.90;;;;;;5063215;28;20034;-57
2023/10/29 07:47:34;;;;;;;0.68;0.43;;;14.50;99.90;;;;;;5065623;28;20033;-55
2023/10/29 07:50:00;;;;;;;6.00;0.85;;;14.50;99.90;;;;;;5059000;28;20037;-56
2023/10/29 07:52:25;;;;;;;2.28;0.30;;;14.40;99.90;;;;;;5055115;28;20260;-53
2023/10/29 07:54:51;;;;;;;3.72;0.50;;;14.50;99.90;;;;;;5058082;28;20492;-57
2023/10/29 07:57:17;;;;;;;0.85;0.45;;;14.50;99.90;;;;;;5053403;28;20033;-56
2023/10/29 07:59:43;;;;;;;2.03;0.52;;;14.50;99.90;;;;;;5057197;28;20024;-57
2023/10/29 08:02:08;;;;;;;3.60;0.60;;;14.60;99.90;;;;;;5065219;28;20035;-59
2023/10/29 08:04:34;;;;;;;2.38;0.60;;;14.80;99.90;;;;;;5055405;28;20380;-58
2023/10/29 08:07:00;;;;;;;2.30;0.50;;;14.90;99.90;;;;;;5054147;28;20037;-60
2023/10/29 08:09:26;;;;;;;5.85;0.90;;;15.00;99.90;;;;;;5059195;28;20047;-57
2023/10/29 08:11:52;;;;;;;7.13;0.75;;;15.00;99.90;;;;;;5054231;28;20044;-59
2023/10/29 08:14:17;;;;;;;2.55;0.50;;;15.10;99.90;;;;;;5059438;28;20047;-57
2023/10/29 08:16:43;;;;;;;2.83;0.65;;;15.10;99.90;;;;;;5053634;28;20027;-59
2023/10/29 08:19:08;;;;;;;3.90;0.70;;;15.10;99.90;;;;;;5062708;28;20029;-52
2023/10/29 08:21:34;;;;;;;3.17;0.60;;;15.10;99.90;;;;;;5056900;28;20025;-61
2023/10/29 08:23:59;;;;;;;4.45;0.80;;;15.10;99.90;;;;;;5061192;28;20086;-57
2023/10/29 08:26:26;;;;;;;1.55;0.50;;;15.10;99.90;;;;;;5063612;28;20078;-53
2023/10/29 08:28:52;;;;;;;2.88;0.60;;;15.10;99.90;;;;;;5059158;28;20442;-59
2023/10/29 08:31:18;;;;;;;3.60;0.52;;;15.10;99.90;;;;;;5054249;28;20079;-57
2023/10/29 08:33:44;;;;;;;2.58;0.57;;;15.10;99.90;;;;;;5057179;28;20029;-55
2023/10/29 08:36:10;;;;;;;11.13;0.80;;;15.10;99.90;;;;;;5052716;28;20070;-54
2023/10/29 08:38:36;;;;;;;0.65;0.40;;;15.20;99.90;;;;;;5057682;28;20067;-59
2023/10/29 08:41:11;;;;;;;1.25;0.50;;;15.20;99.90;;;;;;5056829;28;20116;-57
2023/10/29 08:43:36;;;;;;;3.70;1.00;;;15.20;99.90;;;;;;5059804;28;20096;-57
2023/10/29 08:46:02;;;;;;;5.10;1.00;;;15.20;99.90;;;;;;5057234;28;20028;-59
2023/10/29 08:48:28;;;;;;;5.97;0.60;;;15.30;99.90;;;;;;5059396;28;20048;-59
2023/10/29 08:50:53;;;;;;;1.08;0.50;;;15.20;99.90;;;;;;5060294;28;20441;-55
2023/10/29 08:53:19;;;;;;;11.60;1.90;;;15.20;99.90;;;;;;5060115;28;20073;-59
2023/10/29 08:55:45;;;;;;;2.75;0.80;;;15.20;99.90;;;;;;5056855;28;20032;-57
2023/10/29 08:58:11;;;;;;;1.40;0.52;;;15.20;99.90;;;;;;5060418;28;20099;-58
2023/10/29 09:00:38;;;;;;;1.95;0.63;;;15.20;99.90;;;;;;5056396;28;20064;-59
2023/10/29 09:03:03;;;;;;;5.68;0.75;;;15.20;99.90;;;;;;5057133;28;20028;-58
2023/10/29 09:05:29;;;;;;;3.33;0.50;;;15.30;99.90;;;;;;5061017;28;20024;-58
2023/10/29 09:07:54;;;;;;;2.55;0.65;;;15.30;99.90;;;;;;5062819;28;20020;-58
2023/10/29 09:10:20;;;;;;;1.58;0.40;;;15.30;99.90;;;;;;5063098;28;20024;-55
2023/10/29 09:12:45;;;;;;;3.05;0.60;;;15.30;99.90;;;;;;5060066;28;20036;-58
2023/10/29 09:15:12;;;;;;;1.75;0.50;;;15.30;99.90;;;;;;5061253;28;20033;-59
2023/10/29 09:17:37;;;;;;;4.10;0.65;;;15.30;99.90;;;;;;5060343;28;20021;-57
2023/10/29 09:20:03;;;;;;;3.90;0.52;;;15.40;99.90;;;;;;5062307;28;20036;-57
2023/10/29 09:22:29;;;;;;;2.40;0.57;;;15.40;99.90;;;;;;5060872;28;20021;-56
2023/10/29 09:24:55;;;;;;;3.15;0.80;;;15.40;99.90;;;;;;5058404;28;20029;-51
2023/10/29 09:27:20;;;;;;;1.55;0.60;;;15.50;99.90;;;;;;5059864;28;20112;-54
2023/10/29 09:29:46;;;;;;;7.93;0.98;;;15.50;99.90;;;;;;5061934;28;20056;-58
2023/10/29 09:32:13;;;;;;;2.30;0.75;;;15.60;99.90;;;;;;5060703;28;20027;-59
2023/10/29 09:34:39;;;;;;;8.93;1.00;;;15.50;99.90;;;;;;5062935;28;20020;-59
2023/10/29 09:37:05;;;;;;;2.10;0.52;;;15.50;99.90;;;;;;5061160;28;20035;-56
2023/10/29 09:39:31;;;;;;;5.75;0.57;;;15.50;99.90;;;;;;5071419;28;20029;-55
2023/10/29 09:42:08;;;;;;;10.45;1.08;;;15.50;99.90;;;;;;5059517;28;20032;-57
2023/10/29 09:44:34;;;;;;;3.25;0.63;;;15.40;99.90;;;;;;5066424;28;20028;-49
2023/10/29 09:47:11;;;;;;;3.83;1.40;;;15.40;99.90;;;;;;5061864;28;20103;-57
2023/10/29 09:49:38;;;;;;;3.00;1.10;;;15.30;99.90;;;;;;5064798;28;20549;-53
2023/10/29 09:52:04;;;;;;;2.90;0.70;;;15.30;99.90;;;;;;5055179;28;20033;-57
2023/10/29 09:54:30;;;;;;;3.85;0.88;;;15.30;99.90;;;;;;5054559;28;20032;-50
2023/10/29 09:56:56;;;;;;;2.53;0.63;;;15.30;99.90;;;;;;5055367;28;20033;-52
2023/10/29 09:59:21;;;;;;;6.47;0.98;;;15.30;99.90;;;;;;5064836;28;20024;-55
2023/10/29 10:01:47;;;;;;;6.93;1.08;;;15.30;99.90;;;;;;5060002;28;20052;-59
2023/10/29 10:04:12;;;;;;;4.22;0.75;;;15.40;99.90;;;;;;5061239;28;20052;-49
2023/10/29 10:06:38;;;;;;;5.07;0.73;;;15.30;99.90;;;;;;5066423;28;20028;-51
2023/10/29 10:09:05;;;;;;;4.28;0.75;;;15.30;99.90;;;;;;5067018;28;20500;-58
2023/10/29 10:11:31;;;;;;;3.28;0.90;;;15.30;99.90;;;;;;5065895;28;20024;-55
2023/10/29 10:13:57;;;;;;;2.85;0.77;;;15.30;99.90;;;;;;5064306;28;20037;-51
2023/10/29 10:16:22;;;;;;;6.22;0.80;;;15.30;99.90;;;;;;5054444;28;20107;-54
2023/10/29 10:18:51;;;;;;;3.28;0.80;;;15.30;99.90;;;;;;5058968;28;20448;-54
2023/10/29 10:21:20;;;;;;;2.55;0.80;;;15.40;99.90;;;;;;5067027;28;20028;-56
2023/10/29 10:23:54;;;;;;;3.80;0.80;;;15.40;99.90;;;;;;5060998;28;20025;-53
2023/10/29 10:26:30;;;;;;;;;;;15.60;99.90;;;;;;5064368;28;20074;-55
2023/10/29 10:29:00;;;;;;;2.17;0.60;;;15.70;99.90;;;;;;5058637;28;19904;-54
2023/10/29 10:31:27;;;;;;;7.85;0.90;;;15.80;99.90;;;;;;5056235;28;20055;-56
2023/10/29 10:34:08;;;;;;;6.55;0.85;;;15.80;99.90;;;;;;5059220;28;20046;-54
2023/10/29 10:36:34;;;;;;;3.78;0.80;;;15.80;99.90;;;;;;5061401;28;20028;-54
2023/10/29 10:38:59;;;;;;;1.58;0.57;;;15.90;99.90;;;;;;5061464;28;20013;-57
2023/10/29 10:41:37;;;;;;;4.68;0.90;;;15.80;99.90;;;;;;5058232;28;20048;-51
2023/10/29 10:44:08;;;;;;;1.83;0.70;;;15.80;99.90;;;;;;5061193;28;20033;-54
2023/10/29 10:46:36;;;;;;;6.20;0.60;;;15.80;99.90;;;;;;5063056;28;20510;-56
2023/10/29 10:49:06;;;;;;;3.15;0.68;;;15.70;99.90;;;;;;5060572;28;20025;-54
2023/10/29 10:51:33;;;;;;;4.78;0.90;;;15.60;99.90;;;;;;5062567;28;20051;-57
2023/10/29 10:54:02;;;;;;;7.20;1.20;;;15.70;99.90;;;;;;5062141;28;20062;-54
2023/10/29 10:56:30;;;;;;;8.20;1.60;;;15.70;99.90;;;;;;5068658;28;20028;-57
2023/10/29 10:58:58;;;;;;;1.48;0.85;;;15.80;99.90;;;;;;5057060;28;20514;-52
2023/10/29 11:01:26;;;;;;;6.22;1.42;;;15.70;99.90;;;;;;5042959;28;20044;-53
2023/10/29 11:03:52;;;;;;;7.65;2.10;;;15.80;99.90;;;;;;5057907;28;20119;-57
2023/10/29 11:06:20;;;;;;;2.03;0.70;;;15.80;99.90;;;;;;5055345;28;20075;-54
2023/10/29 11:08:45;;;;;;;0.90;0.40;;;15.80;99.90;;;;;;5053106;28;20040;-55
2023/10/29 11:11:11;;;;;;;3.92;0.50;;;15.80;99.90;;;;;;5058993;28;20033;-55
2023/10/29 11:13:37;;;;;;;3.00;0.57;;;15.80;99.90;;;;;;5069344;28;20032;-60
2023/10/29 11:16:06;;;;;;;3.53;0.40;;;15.90;99.90;;;;;;5059415;28;20308;-52
2023/10/29 11:18:34;;;;;;;5.28;0.50;;;15.80;99.90;;;;;;5058221;28;20112;-59
2023/10/29 11:21:00;;;;;;;6.95;0.68;;;15.80;99.90;;;;;;5058417;28;20075;-58
2023/10/29 11:23:29;;;;;;;2.20;0.57;;;15.80;99.90;;;;;;5057544;28;20072;-55
2023/10/29 11:26:18;;;;;;;1.25;0.57;;;15.80;99.90;;;;;;5061253;28;20074;-55
2023/10/29 11:28:44;;;;;;;2.65;0.40;;;15.70;99.90;;;;;;5057443;28;20032;-59
2023/10/29 11:31:14;;;;;;;2.03;1.00;;;15.70;99.90;;;;;;5070325;28;20124;-58
2023/10/29 11:33:42;;;;;;;2.83;0.60;;;15.80;99.90;;;;;;5055319;28;20025;-56
2023/10/29 11:36:34;;;;;;;3.30;0.90;;;15.90;99.90;;;;;;5059323;28;20607;-57
2023/10/29 11:39:15;;;;;;;3.72;0.57;;;16.10;99.90;;;;;;5066898;28;20499;-56
2023/10/29 11:41:45;;;;;;;3.80;0.52;;;16.20;99.90;;;;;;5059557;28;20025;-57
2023/10/29 11:44:29;;;;;;;2.80;0.57;;;16.30;99.90;;;;;;5059779;28;20039;-57
2023/10/29 11:46:55;;;;;;;1.23;0.55;;;16.20;99.90;;;;;;5060531;28;20029;-59
2023/10/29 11:49:21;;;;;;;2.63;0.68;;;16.20;99.90;;;;;;5060898;28;21618;-58
2023/10/29 11:52:02;;;;;;;1.17;0.50;;;16.20;99.90;;;;;;5065955;28;20573;-58
2023/10/29 11:54:32;;;;;;;1.50;0.50;;;16.20;99.90;;;;;;5059408;28;20047;-53
2023/10/29 11:56:59;;;;;;;1.50;0.77;;;16.30;99.90;;;;;;5062981;28;20029;-57
2023/10/29 11:59:25;;;;;;;0.90;0.50;;;16.30;99.90;;;;;;5065162;28;20115;-57
2023/10/29 12:01:53;;;;;;;4.30;1.08;;;16.30;99.90;;;;;;5064106;28;20094;-58
2023/10/29 12:04:18;;;;;;;1.42;0.60;;;16.20;99.90;;;;;;5056575;28;20025;-55
2023/10/29 12:06:46;;;;;;;3.42;0.60;;;16.20;99.90;;;;;;5056894;28;20119;-56
2023/10/29 12:09:21;;;;;;;0.90;0.52;;;16.00;99.90;;;;;;5059301;28;20028;-57
2023/10/29 12:11:49;;;;;;;1.70;0.57;;;16.00;99.90;;;;;;5064324;28;20024;-54
2023/10/29 12:14:15;;;;;;;1.48;0.57;;;15.90;99.90;;;;;;5052950;28;20043;-54
2023/10/29 12:16:41;;;;;;;3.35;1.25;;;15.90;99.90;;;;;;5058128;28;20032;-55
2023/10/29 12:19:07;;;;;;;3.25;0.75;;;15.90;99.90;;;;;;5058070;28;20032;-51
2023/10/29 12:21:33;;;;;;;1.65;0.63;;;15.90;99.90;;;;;;5055396;28;20033;-60
2023/10/29 12:23:59;;;;;;;2.47;0.50;;;16.00;99.90;;;;;;5061660;28;20033;-55
2023/10/29 12:26:30;;;;;;;3.67;0.55;;;16.00;99.90;;;;;;5063566;28;20672;-51
2023/10/29 12:28:57;;;;;;;2.20;0.50;;;16.10;99.90;;;;;;5065348;28;20426;-52
2023/10/29 12:31:26;;;;;;;1.77;0.47;;;16.10;99.90;;;;;;5064222;28;20029;-54
2023/10/29 12:33:59;;;;;;;1.48;0.40;;;16.20;99.90;;;;;;5062383;28;20016;-55
2023/10/29 12:36:27;;;;;;;2.38;0.52;;;16.10;99.90;;;;;;5060014;28;20028;-54
2023/10/29 12:38:53;;;;;;;2.65;0.70;;;16.20;99.90;;;;;;5065710;28;20033;-52
2023/10/29 12:41:23;;;;;;;0.73;0.30;;;16.20;99.90;;;;;;5068725;28;20012;-57
2023/10/29 12:43:52;;;;;;;0.57;0.30;;;16.20;99.90;;;;;;5063943;28;20368;-54